Flight Track Log - Related Links

Times and Time Zones

All times are in EDT time to prevent confusion due to time zone crossing. See the AWI3664 flight status page for this flight to view local times or setup timezone preferences in your user account.

Time Position Orientation Groundspeed Altitude Reporting Facility
EDT Latitude Longitude Course Direction KTS MPH feet Rate Location/Type
Wed 11:54:00 AM 33.7411 -82.0325 350° North  Level FlightAware Approximate
Wed 11:54:54 AM 33.5878 -82.0164 347° North 256 295 6,800  Level Atlanta Center
Wed 11:55:00 AM 33.8349 -82.0519 350° North  Level FlightAware Approximate
Wed 11:55:54 AM 33.6672 -82.0294 352° North 328 377 12,000  Level Atlanta Center
Wed 11:56:00 AM 33.8941 -82.0642 350° North  Level FlightAware Approximate
Wed 11:56:54 AM 33.7467 -82.0478 349° North 316 364 10,000  Level Atlanta Center
Wed 11:57:00 AM 33.9534 -82.0764 350° North  Level FlightAware Approximate
Wed 11:57:54 AM 33.8283 -82.0633 351° North 303 349 10,900  Level Atlanta Center
Wed 11:58:00 AM 34.0126 -82.0888 350° North  Level FlightAware Approximate
Wed 11:58:54 AM 33.9017 -82.0792 350° North 298 343 12,100  Level Atlanta Center
Wed 11:59:00 AM 34.0718 -82.1014 347° North  Level FlightAware Approximate
Wed 11:59:54 AM 33.9856 -82.0972 350° North 298 343 12,000  Level Atlanta Center
Wed 12:00:00 PM 34.1519 -82.1232 347° North  Level FlightAware Approximate
Wed 12:00:54 PM 34.0714 -82.1153 350° North 298 343 12,000  Level Atlanta Center
Wed 12:01:54 PM 34.1636 -82.1358 350° North 309 356 12,000  Level Atlanta Center
Wed 12:02:54 PM 34.2511 -82.1289 North 315 362 12,000  Level Atlanta Center
Wed 12:03:54 PM 34.3125 -82.0494 47° Northeast 294 338 12,000  Level Atlanta Center
Wed 12:04:54 PM 34.3758 -81.9750 44° Northeast 301 346 12,000  Level Atlanta Center
Wed 12:05:54 PM 34.4414 -81.8953 45° Northeast 312 359 12,000  Level Atlanta Center
Wed 12:06:54 PM 34.5067 -81.8156 45° Northeast 323 372 12,000  Level Atlanta Center
Wed 12:07:54 PM 34.5742 -81.7356 44° Northeast 328 377 12,000  Level Atlanta Center
Wed 12:08:54 PM 34.6414 -81.6581 43° Northeast 328 377 12,000  Level Atlanta Center
Wed 12:09:45 PM 34.7025 -81.5831 45° Northeast 330 380 12,000  Level Atlanta Center
Wed 12:10:54 PM 34.7758 -81.4897 46° Northeast 323 372 12,000  Level Atlanta Center
Wed 12:11:52 PM 34.8367 -81.4119 46° Northeast 328 377 12,000  Level Atlanta Center
Wed 12:12:53 PM 34.8997 -81.3314 46° Northeast 328 377 12,000  Level Atlanta Center
Wed 12:13:54 PM 34.9647 -81.2483 46° Northeast 328 377 12,000 -50 Level Atlanta Center
Wed 12:14:54 PM 35.0275 -81.1650 47° Northeast 328 377 11,900 -609 Descending Atlanta Center
Wed 12:16:02 PM 35.1003 -81.0761 45° Northeast 331 381 10,700 -1,100 Descending Atlanta Center
Wed 12:16:54 PM 35.1753 -81.0633 North 306 352 9,700 -1,148 Descending Atlanta Center
Wed 12:18:00 PM 35.2664 -81.0682 356° North  Level FlightAware Approximate
Wed 12:19:05 PM 35.3511 -81.0850 356° North 285 328 7,200  Level Atlanta Center
Wed 12:19:54 PM 35.4158 -81.0903 356° North 276 318 6,100 -1,211 Descending Atlanta Center
Wed 12:20:54 PM 35.4822 -81.0753 10° North 248 285 5,000 -793 Descending Atlanta Center
Wed 12:21:55 PM 35.4642 -81.0222 113° Southeast 191 220 4,500 -938 Descending Atlanta Center
Wed 12:23:02 PM 35.4067 -80.9733 145° Southeast 217 250 3,000 -738 Descending Atlanta Center
Wed 12:23:57 PM 35.3606 -80.9700 177° South 170 196 3,000 -375 Level Atlanta Center
Wed 12:25:10 PM 35.3103 -80.9617 172° South 151 174 2,200 -614 Descending Atlanta Center
Wed 12:26:04 PM 35.2706 -80.9581 176° South 153 176 1,700 -556 Descending Atlanta Center

Login

Don't have an account? Register now (free) for customized features, flight alerts, and more!